Jacksonville, Illinois
Current Conditions -  °F | °C
As of 9:15 AM on Monday 24 Nov 2014 (Local Time) from KIJX Reporting Station
Overcast Overcast  
Wind Chill: -3°   Ceiling: 2300
Heat Index:   Visibility: 10mi
Dew Point: -1°   Wind: 16mph
Humidity: 78%   Direction: 260°W
Pressure: 29.54"   Gusts: 25mph
Location:  39.75°N, 90.23°W
Report Text: KIJX 241515Z AUTO 26014G22KT 10SM OVC023 02/M01 A2954 RMK AO2 T00201014
Loading
Personal Weather Stations






























Interactive Weather Map New forecast layout! Learn more

10-Day Weather Forecast

Advertisements
Track Severe Weather on mobile